Emma Bardán — ECJU — position and weather

sailwx.info

Track history (hours):
 
Tides and Currents Weather Stations Pressure Air Temp Water Temp Dewpoint Dewpoint Depression Visibility Wind Speed Wind Dir Waves Ship Positions

Oceanographic research ship Emma Bardán (Spain)

Ship's website: http://www.mapa.es/es/pesca/pags/emma_web/index.htm

Last reported at 2017-May-21 02:46 UTC. Time now 2017-May-24 15:26 UTC.
Position N 44°48' W 001°48'.

Length 29 m; draft 3.6 m.

Type: . MMSI: 224756000.

Date/timePositionNaut miles runAvg speedWind from/ knotsBaromVisibWave heightAir tempDewpointWater temp
2017-May-21 02:46N 44°48' W 001°48'10 8.9
2017-May-21 01:42N 44°38' W 001°48'  
2017-May-17 11:28N 44°28' W 001°56'5 9.8
2017-May-17 11:00N 44°33' W 001°55'510.0
2017-May-17 10:30N 44°38' W 001°55'610.1
2017-May-17 09:53N 44°44' W 001°54'410.3
2017-May-17 09:30N 44°48' W 001°54'610.4
2017-May-17 08:59N 44°53' W 001°53'1010.2
2017-May-17 08:02N 45°03' W 001°51'010.4
2017-May-17 08:00N 45°03' W 001°51'19 7.3
2017-May-17 05:21N 45°23' W 001°50'2 5.3
2017-May-17 04:59N 45°23' W 001°53'1 1.4
2017-May-17 04:02N 45°23' W 001°51'0 4.3
2017-May-17 04:00N 45°23' W 001°51'10 4.5
2017-May-17 01:41N 45°23' W 001°36'1 6.4
2017-May-17 01:28N 45°24' W 001°37'21 5.1
2017-May-16 21:23N 45°45' W 001°35'2 6.1
2017-May-16 21:00N 45°44' W 001°32'1510.1
2017-May-16 19:29N 45°31' W 001°21'3 3.7
2017-May-16 18:41N 45°30' W 001°17'2 9.4
2017-May-16 18:26N 45°30' W 001°14'5 8.7
2017-May-16 17:51N 45°30' W 001°21'8 1.7
2017-May-16 13:12N 45°37' W 001°24'2 1.7
2017-May-16 12:17N 45°38' W 001°22'1 0.8
2017-May-16 11:38N 45°38' W 001°23'0 0.3
2017-May-16 11:30N 45°38' W 001°22'0 0.4
2017-May-16 11:00N 45°38' W 001°23'7 6.4
2017-May-16 09:52N 45°45' W 001°27'1 1.7
2017-May-16 09:30N 45°45' W 001°27'4 6.1
2017-May-16 08:48N 45°45' W 001°21'1 3.2
2017-May-16 08:26N 45°45' W 001°19'5 9.0
2017-May-16 07:50N 45°45' W 001°27'50 5.6
2017-May-15 22:48N 45°02' W 002°05'2 7.2
2017-May-15 22:30N 45°00' W 002°05'4 7.0
2017-May-15 21:59N 44°57' W 002°07'3 7.1
2017-May-15 21:30N 44°53' W 002°08'2 3.2
2017-May-15 21:00N 44°52' W 002°10'9 3.4
2017-May-15 18:20N 44°53' W 002°23'3 6.9
2017-May-15 17:53N 44°53' W 002°27'3 7.4
2017-May-15 17:30N 44°53' W 002°23'4 8.4
2017-May-15 17:00N 44°53' W 002°17'4 8.3
2017-May-15 16:30N 44°53' W 002°11'28 7.1
2017-May-15 12:38N 44°53' W 001°32'2 8.7
2017-May-15 12:22N 44°53' W 001°29'2 4.6
2017-May-15 11:58N 44°53' W 001°27'4 8.8
2017-May-15 11:30N 44°53' W 001°32'20 6.6
2017-May-15 08:30N 44°38' W 001°51'4 2.4
2017-May-15 06:47N 44°37' W 001°45'3 8.8
2017-May-15 06:29N 44°37' W 001°49'4 8.4
2017-May-15 06:00N 44°37' W 001°54'4 8.0
2017-May-15 05:27N 44°37' W 002°01'1 2.4
2017-May-15 04:59N 44°37' W 002°02'0 0.3
2017-May-15 03:57N 44°37' W 002°02'0 0.2
2017-May-15 03:28N 44°37' W 002°01'0 0.3
2017-May-15 02:58N 44°37' W 002°01'0 0.3
2017-May-15 02:30N 44°37' W 002°01'0 0.2
2017-May-15 01:23N 44°37' W 002°01'0 0.3
2017-May-15 00:48N 44°37' W 002°01'0 0.3
2017-May-15 00:29N 44°37' W 002°00'15 1.2
2017-May-14 12:20N 44°23' W 001°54'2 3.0
2017-May-14 11:42N 44°23' W 001°52'0 0.3
2017-May-14 11:16N 44°23' W 001°52'0 0.6
2017-May-14 11:00N 44°23' W 001°52'11 3.5
2017-May-14 07:52N 44°23' W 001°36'23 2.2
2017-May-13 21:35N 44°08' W 001°60'1 3.9
2017-May-13 21:20N 44°08' W 002°01'1 3.7
2017-May-13 21:00N 44°08' W 002°03'2 3.9
2017-May-13 20:30N 44°08' W 002°05'4 4.5
2017-May-13 19:39N 44°08' W 002°11'1 3.6
2017-May-13 19:30N 44°08' W 002°11'0 0.5
2017-May-13 18:59N 44°08' W 002°12'0 0.7
2017-May-13 18:30N 44°08' W 002°12'0 0.7
2017-May-13 18:00N 44°08' W 002°13'0 0.7
2017-May-13 17:28N 44°08' W 002°13'38 1.2
2017-May-12 08:46N 43°37' W 001°42'2 3.0
2017-May-12 08:10N 43°37' W 001°39'1 3.9
2017-May-12 07:57N 43°37' W 001°38'3 4.6
2017-May-12 07:14N 43°37' W 001°33'4 1.9
2017-May-12 05:25N 43°37' W 001°38'4 7.9
2017-May-12 04:58N 43°37' W 001°43'  
Track history (hours):
 
Tides and Currents Weather Stations Pressure Air Temp Water Temp Dewpoint Dewpoint Depression Visibility Wind Speed Wind Dir Waves Ship Positions

Oceanographic research ship Emma Bardán (Spain)

Ship's website: http://www.mapa.es/es/pesca/pags/emma_web/index.htm

Last reported at 2017-May-21 02:46 UTC. Time now 2017-May-24 15:26 UTC.
Position N 44°48' W 001°48'.

Length 29 m; draft 3.6 m.

Type: . MMSI: 224756000.

Date/timePositionNaut miles runAvg speedWind from/ knotsBaromVisibWave heightAir tempDewpointWater temp
2017-May-21 02:46N 44°48' W 001°48'10 8.9
2017-May-21 01:42N 44°38' W 001°48'  
2017-May-17 11:28N 44°28' W 001°56'5 9.8
2017-May-17 11:00N 44°33' W 001°55'510.0
2017-May-17 10:30N 44°38' W 001°55'610.1
2017-May-17 09:53N 44°44' W 001°54'410.3
2017-May-17 09:30N 44°48' W 001°54'610.4
2017-May-17 08:59N 44°53' W 001°53'1010.2
2017-May-17 08:02N 45°03' W 001°51'010.4
2017-May-17 08:00N 45°03' W 001°51'19 7.3
2017-May-17 05:21N 45°23' W 001°50'2 5.3
2017-May-17 04:59N 45°23' W 001°53'1 1.4
2017-May-17 04:02N 45°23' W 001°51'0 4.3
2017-May-17 04:00N 45°23' W 001°51'10 4.5
2017-May-17 01:41N 45°23' W 001°36'1 6.4
2017-May-17 01:28N 45°24' W 001°37'21 5.1
2017-May-16 21:23N 45°45' W 001°35'2 6.1
2017-May-16 21:00N 45°44' W 001°32'1510.1
2017-May-16 19:29N 45°31' W 001°21'3 3.7
2017-May-16 18:41N 45°30' W 001°17'2 9.4
2017-May-16 18:26N 45°30' W 001°14'5 8.7
2017-May-16 17:51N 45°30' W 001°21'8 1.7
2017-May-16 13:12N 45°37' W 001°24'2 1.7
2017-May-16 12:17N 45°38' W 001°22'1 0.8
2017-May-16 11:38N 45°38' W 001°23'0 0.3
2017-May-16 11:30N 45°38' W 001°22'0 0.4
2017-May-16 11:00N 45°38' W 001°23'7 6.4
2017-May-16 09:52N 45°45' W 001°27'1 1.7
2017-May-16 09:30N 45°45' W 001°27'4 6.1
2017-May-16 08:48N 45°45' W 001°21'1 3.2
2017-May-16 08:26N 45°45' W 001°19'5 9.0
2017-May-16 07:50N 45°45' W 001°27'50 5.6
2017-May-15 22:48N 45°02' W 002°05'2 7.2
2017-May-15 22:30N 45°00' W 002°05'4 7.0
2017-May-15 21:59N 44°57' W 002°07'3 7.1
2017-May-15 21:30N 44°53' W 002°08'2 3.2
2017-May-15 21:00N 44°52' W 002°10'9 3.4
2017-May-15 18:20N 44°53' W 002°23'3 6.9
2017-May-15 17:53N 44°53' W 002°27'3 7.4
2017-May-15 17:30N 44°53' W 002°23'4 8.4
2017-May-15 17:00N 44°53' W 002°17'4 8.3
2017-May-15 16:30N 44°53' W 002°11'28 7.1
2017-May-15 12:38N 44°53' W 001°32'2 8.7
2017-May-15 12:22N 44°53' W 001°29'2 4.6
2017-May-15 11:58N 44°53' W 001°27'4 8.8
2017-May-15 11:30N 44°53' W 001°32'20 6.6
2017-May-15 08:30N 44°38' W 001°51'4 2.4
2017-May-15 06:47N 44°37' W 001°45'3 8.8
2017-May-15 06:29N 44°37' W 001°49'4 8.4
2017-May-15 06:00N 44°37' W 001°54'4 8.0
2017-May-15 05:27N 44°37' W 002°01'1 2.4
2017-May-15 04:59N 44°37' W 002°02'0 0.3
2017-May-15 03:57N 44°37' W 002°02'0 0.2
2017-May-15 03:28N 44°37' W 002°01'0 0.3
2017-May-15 02:58N 44°37' W 002°01'0 0.3
2017-May-15 02:30N 44°37' W 002°01'0 0.2
2017-May-15 01:23N 44°37' W 002°01'0 0.3
2017-May-15 00:48N 44°37' W 002°01'0 0.3
2017-May-15 00:29N 44°37' W 002°00'15 1.2
2017-May-14 12:20N 44°23' W 001°54'2 3.0
2017-May-14 11:42N 44°23' W 001°52'0 0.3
2017-May-14 11:16N 44°23' W 001°52'0 0.6
2017-May-14 11:00N 44°23' W 001°52'11 3.5
2017-May-14 07:52N 44°23' W 001°36'23 2.2
2017-May-13 21:35N 44°08' W 001°60'1 3.9
2017-May-13 21:20N 44°08' W 002°01'1 3.7
2017-May-13 21:00N 44°08' W 002°03'2 3.9
2017-May-13 20:30N 44°08' W 002°05'4 4.5
2017-May-13 19:39N 44°08' W 002°11'1 3.6
2017-May-13 19:30N 44°08' W 002°11'0 0.5
2017-May-13 18:59N 44°08' W 002°12'0 0.7
2017-May-13 18:30N 44°08' W 002°12'0 0.7
2017-May-13 18:00N 44°08' W 002°13'0 0.7
2017-May-13 17:28N 44°08' W 002°13'38 1.2
2017-May-12 08:46N 43°37' W 001°42'2 3.0
2017-May-12 08:10N 43°37' W 001°39'1 3.9
2017-May-12 07:57N 43°37' W 001°38'3 4.6
2017-May-12 07:14N 43°37' W 001°33'4 1.9
2017-May-12 05:25N 43°37' W 001°38'4 7.9
2017-May-12 04:58N 43°37' W 001°43'  

Dump ship's entire track history